Time;durP1;ratioP1;P1;durP2;ratioP2;P2;SDS_P1;SDS_P2;PMS_P1;PMS_P2;Temp;Humidity;BMP_temperature;BMP_pressure;BME280_temperature;BME280_humidity;BME280_pressure;Samples;Min_cycle;Max_cycle;Signal;HPM_P1;HPM_P2
2023/03/20 00:00:34;;;;;;;17.70;16.73;;;;;;;-141.22;100.00;65034.22;4915853;29;20454;-46
2023/03/20 00:03:02;;;;;;;17.50;16.40;;;;;;;-141.22;100.00;65034.22;4915305;29;20559;-50
2023/03/20 00:05:31;;;;;;;18.13;17.43;;;;;;;-141.22;100.00;65034.22;4915086;28;21021;-49
2023/03/20 00:07:59;;;;;;;18.37;17.30;;;;;;;-141.22;100.00;65034.22;4915435;29;20444;-49
2023/03/20 00:10:32;;;;;;;19.50;18.60;;;;;;;-141.22;100.00;65034.22;4915274;29;20457;-47
2023/03/20 00:13:03;;;;;;;19.90;18.80;;;;;;;-141.22;100.00;65034.22;4915200;29;20436;-45
2023/03/20 00:15:34;;;;;;;20.83;19.63;;;;;;;-141.22;100.00;65034.22;4914680;29;20827;-47
2023/03/20 00:18:05;;;;;;;19.10;18.20;;;;;;;-141.22;100.00;65034.22;4915299;29;20434;-52
2023/03/20 00:20:32;;;;;;;19.33;18.23;;;;;;;-141.22;100.00;65034.22;4915219;29;20513;-51
2023/03/20 00:23:01;;;;;;;20.93;19.63;;;;;;;-141.22;100.00;65034.22;4915149;29;20477;-48
2023/03/20 00:25:29;;;;;;;18.60;17.60;;;;;;;-141.22;100.00;65034.22;4914819;28;20477;-48
2023/03/20 00:27:56;;;;;;;19.70;18.07;;;;;;;-141.22;100.00;65034.22;4915023;29;20448;-52
2023/03/20 00:30:34;;;;;;;19.03;18.03;;;;;;;-141.22;100.00;65034.22;4915063;29;20556;-49
2023/03/20 00:33:02;;;;;;;17.97;17.17;;;;;;;-141.22;100.00;65034.22;4914728;29;20509;-48
2023/03/20 00:35:31;;;;;;;18.30;17.57;;;;;;;-141.22;100.00;65034.22;4914839;28;20502;-52
2023/03/20 00:37:59;;;;;;;17.80;17.00;;;;;;;-141.22;100.00;65034.22;4915261;29;20440;-49
2023/03/20 00:40:30;;;;;;;18.17;17.47;;;;;;;-141.22;100.00;65034.22;4914853;29;20449;-48
2023/03/20 00:43:00;;;;;;;17.70;17.00;;;;;;;-141.22;100.00;65034.22;4915142;29;20479;-52
2023/03/20 00:45:31;;;;;;;17.37;16.67;;;;;;;-141.22;100.00;65034.22;4914888;28;20465;-49
2023/03/20 00:48:00;;;;;;;17.00;16.40;;;;;;;-141.22;100.00;65034.22;4915252;29;20433;-50
2023/03/20 00:50:30;;;;;;;17.63;16.93;;;;;;;-141.22;100.00;65034.22;4914881;29;20840;-49
2023/03/20 00:52:59;;;;;;;19.20;18.37;;;;;;;-141.22;100.00;65034.22;4914786;29;20966;-51
2023/03/20 00:55:29;;;;;;;18.40;17.70;;;;;;;-141.22;100.00;65034.22;4914748;28;20457;-51
2023/03/20 00:57:59;;;;;;;18.23;17.53;;;;;;;-141.22;100.00;65034.22;4915118;29;20433;-50
2023/03/20 01:00:40;;;;;;;18.27;17.47;;;;;;;-141.22;100.00;65034.22;4915175;29;20828;-54
2023/03/20 01:03:15;;;;;;;18.03;17.40;;;;;;;-141.22;100.00;65034.22;4914719;29;20473;-49
2023/03/20 01:05:44;;;;;;;18.77;18.07;;;;;;;-141.22;100.00;65034.22;4914380;28;20477;-49
2023/03/20 01:08:14;;;;;;;18.50;17.80;;;;;;;-141.22;100.00;65034.22;4914884;29;20426;-50
2023/03/20 01:10:44;;;;;;;19.67;18.87;;;;;;;-141.22;100.00;65034.22;4915123;29;20446;-51
2023/03/20 01:13:20;;;;;;;18.30;17.60;;;;;;;-141.22;100.00;65034.22;4914440;29;20848;-49
2023/03/20 01:15:51;;;;;;;19.20;18.40;;;;;;;-141.22;100.00;65034.22;4914176;28;20497;-49
2023/03/20 01:18:20;;;;;;;18.80;18.10;;;;;;;-141.22;100.00;65034.22;4915130;29;20433;-48
2023/03/20 01:20:49;;;;;;;19.10;18.30;;;;;;;-141.22;100.00;65034.22;4914763;29;21019;-51
2023/03/20 01:23:17;;;;;;;19.47;18.67;;;;;;;-141.22;100.00;65034.22;4914564;29;20516;-53
2023/03/20 01:25:45;;;;;;;18.80;18.00;;;;;;;-141.22;100.00;65034.22;4914360;28;20476;-50
2023/03/20 01:28:15;;;;;;;18.80;18.00;;;;;;;-141.22;100.00;65034.22;4914528;29;20930;-52
2023/03/20 01:30:43;;;;;;;18.47;17.77;;;;;;;-141.22;100.00;65034.22;4914859;29;20468;-49
2023/03/20 01:33:17;;;;;;;19.10;18.00;;;;;;;-141.22;100.00;65034.22;4914417;29;20436;-51
2023/03/20 01:35:46;;;;;;;19.13;18.27;;;;;;;-141.22;100.00;65034.22;4914123;28;20471;-47
2023/03/20 01:38:19;;;;;;;18.07;17.37;;;;;;;-141.22;100.00;65034.22;4914365;29;20441;-47
2023/03/20 01:40:56;;;;;;;19.50;18.50;;;;;;;-141.22;100.00;65034.22;4914354;29;20826;-47
2023/03/20 01:43:25;;;;;;;18.50;17.70;;;;;;;-141.22;100.00;65034.22;4917642;29;20483;-49
2023/03/20 01:46:01;;;;;;;19.87;18.80;;;;;;;-141.22;100.00;65034.22;4917714;28;20473;-49
2023/03/20 01:48:55;;;;;;;17.83;17.13;;;;;;;-141.22;100.00;65034.22;4917896;29;20441;-51
2023/03/20 01:51:25;;;;;;;17.93;17.23;;;;;;;-141.22;100.00;65034.22;4917566;29;20445;-47
2023/03/20 01:54:02;;;;;;;19.20;18.50;;;;;;;-141.22;100.00;65034.22;4918145;29;20961;-45
2023/03/20 01:56:32;;;;;;;18.30;17.60;;;;;;;-141.22;100.00;65034.22;4917324;28;20461;-51
2023/03/20 01:59:10;;;;;;;19.43;18.57;;;;;;;-141.22;100.00;65034.22;4917713;29;20455;-46
2023/03/20 02:01:38;;;;;;;18.93;18.13;;;;;;;-141.22;100.00;65034.22;4917459;29;20445;-54
2023/03/20 02:04:08;;;;;;;19.40;18.60;;;;;;;-141.22;100.00;65034.22;4917619;29;20518;-48
2023/03/20 02:06:39;;;;;;;19.10;18.40;;;;;;;-141.22;100.00;65034.22;4917199;28;20525;-52
2023/03/20 02:09:07;;;;;;;18.60;17.90;;;;;;;-141.22;100.00;65034.22;4917676;29;20453;-48
2023/03/20 02:11:37;;;;;;;19.00;18.20;;;;;;;-141.22;100.00;65034.22;4917472;29;20445;-52
2023/03/20 02:14:05;;;;;;;19.87;18.97;;;;;;;-141.22;100.00;65034.22;4917612;29;20435;-47
2023/03/20 02:16:33;;;;;;;19.07;18.37;;;;;;;-141.22;100.00;65034.22;4916975;28;20512;-46
2023/03/20 02:19:01;;;;;;;18.93;18.23;;;;;;;-141.22;100.00;65034.22;4917520;29;20453;-51
2023/03/20 02:22:16;;;;;;;20.03;19.23;;;;;;;-141.22;100.00;65034.22;4917060;29;20448;-46
2023/03/20 02:25:23;;;;;;;18.80;18.10;;;;;;;-141.22;100.00;65034.22;4895930;29;20478;-48
2023/03/20 02:28:12;;;;;;;20.83;19.93;;;;;;;-141.22;100.00;65034.22;4917305;29;20441;-49
2023/03/20 02:31:00;;;;;;;20.03;18.90;;;;;;;-141.22;100.00;65034.22;4917101;29;20462;-47
2023/03/20 02:33:52;;;;;;;20.10;19.20;;;;;;;-141.22;100.00;65034.22;4916852;29;20430;-50
2023/03/20 02:37:11;;;;;;;20.40;19.40;;;;;;;-141.22;100.00;65034.22;4914353;28;20469;-48
2023/03/20 02:40:11;;;;;;;20.53;19.73;;;;;;;-141.22;100.00;65034.22;4917198;29;20454;-52
2023/03/20 02:42:46;;;;;;;21.00;20.03;;;;;;;-141.22;100.00;65034.22;4916997;29;20434;-49
2023/03/20 02:45:19;;;;;;;20.87;19.87;;;;;;;-141.22;100.00;65034.22;4916600;28;20472;-49
2023/03/20 02:47:53;;;;;;;19.90;19.10;;;;;;;-141.22;100.00;65034.22;4916872;29;20437;-45
2023/03/20 02:50:33;;;;;;;20.97;20.07;;;;;;;-141.22;100.00;65034.22;4916852;29;20833;-50
2023/03/20 02:53:15;;;;;;;20.70;19.80;;;;;;;-141.22;100.00;65034.22;4915808;29;20528;-48
2023/03/20 02:55:51;;;;;;;20.30;19.40;;;;;;;-141.22;100.00;65034.22;4916180;28;20913;-48
2023/03/20 03:01:00;;;;;;;20.30;19.40;;;;;;;-141.22;100.00;65034.22;4932998;29;20452;-48
2023/03/20 03:03:34;;;;;;;21.13;20.13;;;;;;;-141.22;100.00;65034.22;4935460;29;20428;-49
2023/03/20 03:06:09;;;;;;;22.23;21.20;;;;;;;-141.22;100.00;65034.22;4935275;28;20970;-48
2023/03/20 03:08:43;;;;;;;21.80;20.80;;;;;;;-141.22;100.00;65034.22;4935393;29;20425;-48
2023/03/20 03:11:12;;;;;;;20.80;19.90;;;;;;;-141.22;100.00;65034.22;4935969;29;20441;-48
2023/03/20 03:13:44;;;;;;;22.33;21.33;;;;;;;-141.22;100.00;65034.22;4935340;29;20433;-47
2023/03/20 03:16:17;;;;;;;21.20;20.27;;;;;;;-141.22;100.00;65034.22;4935436;28;20468;-52
2023/03/20 03:18:46;;;;;;;21.60;20.60;;;;;;;-141.22;100.00;65034.22;4935311;29;20452;-47
2023/03/20 03:21:17;;;;;;;21.10;20.13;;;;;;;-141.22;100.00;65034.22;4935464;29;20440;-47
2023/03/20 03:23:47;;;;;;;22.70;21.60;;;;;;;-141.22;100.00;65034.22;4935233;29;20480;-50
2023/03/20 03:26:21;;;;;;;20.67;19.87;;;;;;;-141.22;100.00;65034.22;4935089;28;20492;-52
2023/03/20 03:28:52;;;;;;;20.77;19.90;;;;;;;-141.22;100.00;65034.22;4935303;29;20534;-52
2023/03/20 03:31:21;;;;;;;21.17;20.27;;;;;;;-141.22;100.00;65034.22;4935115;29;20934;-48
2023/03/20 03:33:51;;;;;;;20.30;19.40;;;;;;;-141.22;100.00;65034.22;4935296;29;20437;-47
2023/03/20 03:36:29;;;;;;;22.13;21.13;;;;;;;-141.22;100.00;65034.22;4934846;28;20471;-48
2023/03/20 03:39:02;;;;;;;21.90;20.90;;;;;;;-141.22;100.00;65034.22;4935370;29;20457;-50
2023/03/20 03:41:37;;;;;;;20.50;19.70;;;;;;;-141.22;100.00;65034.22;4934754;29;20441;-52
2023/03/20 03:44:11;;;;;;;20.43;19.60;;;;;;;-141.22;100.00;65034.22;4934617;29;20476;-52
2023/03/20 03:46:43;;;;;;;20.20;19.50;;;;;;;-141.22;100.00;65034.22;4934274;28;20467;-49
2023/03/20 03:49:16;;;;;;;20.80;19.90;;;;;;;-141.22;100.00;65034.22;4935270;29;20440;-49
2023/03/20 03:51:48;;;;;;;21.63;20.53;;;;;;;-141.22;100.00;65034.22;4935051;29;20748;-51
2023/03/20 03:54:20;;;;;;;22.70;21.60;;;;;;;-141.22;100.00;65034.22;4934818;29;20445;-54
2023/03/20 03:56:51;;;;;;;21.23;20.23;;;;;;;-141.22;100.00;65034.22;4934349;28;20461;-54
2023/03/20 03:59:24;;;;;;;22.80;21.70;;;;;;;-141.22;100.00;65034.22;4934915;29;20543;-54
2023/03/20 04:01:54;;;;;;;22.93;21.73;;;;;;;-141.22;100.00;65034.22;4934894;29;20424;-48
2023/03/20 04:04:23;;;;;;;24.40;22.90;;;;;;;-141.22;100.00;65034.22;4934338;29;20874;-47
2023/03/20 04:06:51;;;;;;;24.90;23.50;;;;;;;-141.22;100.00;65034.22;4934017;28;20492;-46
2023/03/20 04:09:19;;;;;;;27.57;25.50;;;;;;;-141.22;100.00;65034.22;4934562;29;20457;-48
2023/03/20 04:11:52;;;;;;;29.07;26.73;;;;;;;-141.22;100.00;65034.22;4934606;29;20452;-52
2023/03/20 04:14:20;;;;;;;29.77;27.40;;;;;;;-141.22;100.00;65034.22;4934401;29;20429;-48
2023/03/20 04:16:48;;;;;;;32.57;29.47;;;;;;;-141.22;100.00;65034.22;4933866;28;20548;-52
2023/03/20 04:19:16;;;;;;;31.47;29.00;;;;;;;-141.22;100.00;65034.22;4934258;29;20457;-52
2023/03/20 04:21:44;;;;;;;31.13;28.80;;;;;;;-141.22;100.00;65034.22;4933955;29;20518;-49
2023/03/20 04:24:12;;;;;;;32.57;29.23;;;;;;;-141.22;100.00;65034.22;4934324;29;20531;-48
2023/03/20 04:26:39;;;;;;;35.43;32.07;;;;;;;-141.22;100.00;65034.22;4933801;28;20464;-50
2023/03/20 04:29:09;;;;;;;32.70;29.40;;;;;;;-141.22;100.00;65034.22;4934216;29;20471;-46
2023/03/20 04:31:36;;;;;;;31.23;29.00;;;;;;;-141.22;100.00;65034.22;4932997;29;20954;-45
2023/03/20 04:34:05;;;;;;;32.50;29.93;;;;;;;-141.22;100.00;65034.22;4934087;29;20440;-46
2023/03/20 04:36:32;;;;;;;32.03;29.53;;;;;;;-141.22;100.00;65034.22;4933900;28;21294;-50
2023/03/20 04:39:00;;;;;;;29.33;27.03;;;;;;;-141.22;100.00;65034.22;4933887;29;20457;-48
2023/03/20 04:41:28;;;;;;;29.80;27.60;;;;;;;-141.22;100.00;65034.22;4934010;29;20437;-51
2023/03/20 04:43:56;;;;;;;28.10;26.00;;;;;;;-141.22;100.00;65034.22;4933932;29;20429;-47
2023/03/20 04:46:25;;;;;;;31.03;28.43;;;;;;;-141.22;100.00;65034.22;4933288;28;20854;-47
2023/03/20 04:48:52;;;;;;;28.50;26.67;;;;;;;-141.22;100.00;65034.22;4933939;29;20464;-47
2023/03/20 04:51:20;;;;;;;29.60;27.13;;;;;;;-141.22;100.00;65034.22;4933699;29;20448;-48
2023/03/20 04:53:48;;;;;;;30.07;27.67;;;;;;;-141.22;100.00;65034.22;4934181;29;20533;-50
2023/03/20 04:56:15;;;;;;;30.73;28.30;;;;;;;-141.22;100.00;65034.22;4933972;28;21000;-47
2023/03/20 04:58:43;;;;;;;30.17;28.00;;;;;;;-141.22;100.00;65034.22;4933669;29;20464;-46
2023/03/20 05:01:11;;;;;;;32.13;28.97;;;;;;;-141.22;100.00;65034.22;4934121;29;20441;-49
2023/03/20 05:03:40;;;;;;;30.40;28.07;;;;;;;-141.22;100.00;65034.22;4932923;29;20539;-50
2023/03/20 05:06:08;;;;;;;30.10;28.07;;;;;;;-141.22;100.00;65034.22;4933362;28;20473;-49
2023/03/20 05:08:36;;;;;;;30.40;28.13;;;;;;;-141.22;100.00;65034.22;4934058;29;20440;-51
2023/03/20 05:11:04;;;;;;;30.37;27.90;;;;;;;-141.22;100.00;65034.22;4933268;29;20448;-51
2023/03/20 05:13:32;;;;;;;31.00;28.50;;;;;;;-141.22;100.00;65034.22;4933602;29;20436;-49
2023/03/20 05:16:00;;;;;;;30.50;28.37;;;;;;;-141.22;100.00;65034.22;4933666;28;20475;-50
2023/03/20 05:18:27;;;;;;;29.93;27.90;;;;;;;-141.22;100.00;65034.22;4937001;29;20993;-50
2023/03/20 05:20:56;;;;;;;31.37;29.23;;;;;;;-141.22;100.00;65034.22;4937585;29;20480;-48
2023/03/20 05:23:24;;;;;;;31.50;29.27;;;;;;;-141.22;100.00;65034.22;4937125;29;20472;-48
2023/03/20 05:25:52;;;;;;;30.03;27.77;;;;;;;-141.22;100.00;65034.22;4936821;28;20465;-49
2023/03/20 05:28:19;;;;;;;29.30;27.60;;;;;;;-141.22;100.00;65034.22;4937687;29;20502;-46
2023/03/20 05:30:47;;;;;;;30.73;28.63;;;;;;;-141.22;100.00;65034.22;4937475;29;20445;-49
2023/03/20 05:33:15;;;;;;;29.47;27.57;;;;;;;-141.22;100.00;65034.22;4937557;29;20437;-50
2023/03/20 05:35:43;;;;;;;31.30;29.07;;;;;;;-141.22;100.00;65034.22;4937105;28;20988;-46
2023/03/20 05:38:12;;;;;;;31.57;29.63;;;;;;;-141.22;100.00;65034.22;4937187;29;21009;-46
2023/03/20 05:40:40;;;;;;;31.67;29.37;;;;;;;-141.22;100.00;65034.22;4936947;29;20966;-48
2023/03/20 05:43:08;;;;;;;33.80;31.20;;;;;;;-141.22;100.00;65034.22;4936996;29;20440;-52
2023/03/20 05:45:36;;;;;;;33.70;30.73;;;;;;;-141.22;100.00;65034.22;4936917;28;20472;-51
2023/03/20 05:48:05;;;;;;;33.97;31.57;;;;;;;-141.22;100.00;65034.22;4937431;29;20503;-50
2023/03/20 05:50:32;;;;;;;33.47;30.50;;;;;;;-141.22;100.00;65034.22;4936548;29;21256;-51
2023/03/20 05:53:00;;;;;;;34.40;31.60;;;;;;;-141.22;100.00;65034.22;4936712;29;20805;-46
2023/03/20 05:55:29;;;;;;;34.50;31.40;;;;;;;-141.22;100.00;65034.22;4936725;28;20464;-52
2023/03/20 05:57:57;;;;;;;33.83;31.47;;;;;;;-141.22;100.00;65034.22;4936992;29;20462;-49
2023/03/20 06:00:25;;;;;;;32.80;30.70;;;;;;;-141.22;100.00;65034.22;4936567;29;20874;-51
2023/03/20 06:02:53;;;;;;;32.67;30.50;;;;;;;-141.22;100.00;65034.22;4936847;29;20429;-46
2023/03/20 06:05:21;;;;;;;34.03;31.30;;;;;;;-141.22;100.00;65034.22;4936069;28;20544;-46
2023/03/20 06:07:49;;;;;;;35.30;33.00;;;;;;;-141.22;100.00;65034.22;4936824;29;20867;-52
2023/03/20 06:10:18;;;;;;;36.23;33.17;;;;;;;-141.22;100.00;65034.22;4936423;29;20461;-48
2023/03/20 06:12:47;;;;;;;36.20;33.27;;;;;;;-141.22;100.00;65034.22;4936317;29;20433;-53
2023/03/20 06:15:15;;;;;;;34.33;31.23;;;;;;;-141.22;100.00;65034.22;4936003;28;20472;-50
2023/03/20 06:17:43;;;;;;;34.17;31.30;;;;;;;-141.22;100.00;65034.22;4936527;29;20437;-55
2023/03/20 06:20:12;;;;;;;36.23;33.03;;;;;;;-141.22;100.00;65034.22;4936054;29;20460;-48
2023/03/20 06:22:40;;;;;;;34.23;31.40;;;;;;;-141.22;100.00;65034.22;4936576;29;20447;-46
2023/03/20 06:25:09;;;;;;;38.03;33.87;;;;;;;-141.22;100.00;65034.22;4936138;28;20536;-49
2023/03/20 06:27:36;;;;;;;37.40;33.53;;;;;;;-141.22;100.00;65034.22;4936352;29;20439;-51
2023/03/20 06:30:06;;;;;;;34.47;31.90;;;;;;;-141.22;100.00;65034.22;4936216;29;20471;-49
2023/03/20 06:32:34;;;;;;;35.50;32.53;;;;;;;-141.22;100.00;65034.22;4935831;29;20965;-48
2023/03/20 06:35:04;;;;;;;35.27;32.50;;;;;;;-141.22;100.00;65034.22;4935570;28;20437;-47
2023/03/20 06:37:32;;;;;;;34.53;31.83;;;;;;;-141.22;100.00;65034.22;4936167;29;20429;-50
2023/03/20 06:40:00;;;;;;;34.17;31.53;;;;;;;-141.22;100.00;65034.22;4936090;29;20986;-48
2023/03/20 06:42:28;;;;;;;36.27;32.57;;;;;;;-141.22;100.00;65034.22;4935812;29;20447;-47
2023/03/20 06:44:55;;;;;;;33.27;30.40;;;;;;;-141.22;100.00;65034.22;4935301;28;20473;-46
2023/03/20 06:47:25;;;;;;;34.70;31.77;;;;;;;-141.22;100.00;65034.22;4935591;29;20902;-47
2023/03/20 06:49:53;;;;;;;35.03;32.33;;;;;;;-141.22;100.00;65034.22;4936017;29;20452;-47
2023/03/20 06:52:21;;;;;;;35.10;31.90;;;;;;;-141.22;100.00;65034.22;4935809;29;20507;-50
2023/03/20 06:54:49;;;;;;;33.50;30.90;;;;;;;-141.22;100.00;65034.22;4935656;29;20535;-51
2023/03/20 06:57:19;;;;;;;36.37;33.07;;;;;;;-141.22;100.00;65034.22;4935462;29;20563;-46
2023/03/20 06:59:47;;;;;;;33.90;31.40;;;;;;;-141.22;100.00;65034.22;4935235;29;20468;-49
2023/03/20 07:02:15;;;;;;;34.60;31.53;;;;;;;-141.22;100.00;65034.22;4935480;29;20433;-48
2023/03/20 07:04:45;;;;;;;35.30;31.50;;;;;;;-141.22;100.00;65034.22;4935674;29;20452;-47
2023/03/20 07:07:13;;;;;;;35.50;31.90;;;;;;;-141.22;100.00;65034.22;4935079;28;21014;-48
2023/03/20 07:09:41;;;;;;;33.30;30.83;;;;;;;-141.22;100.00;65034.22;4935377;29;20456;-47
2023/03/20 07:12:13;;;;;;;32.80;30.30;;;;;;;-141.22;100.00;65034.22;4935047;29;20443;-49
2023/03/20 07:14:41;;;;;;;32.77;30.37;;;;;;;-141.22;100.00;65034.22;4935773;29;20421;-50
2023/03/20 07:17:09;;;;;;;32.40;29.77;;;;;;;-141.22;100.00;65034.22;4934786;28;20986;-49
2023/03/20 07:19:38;;;;;;;31.70;29.03;;;;;;;-141.22;100.00;65034.22;4935253;29;20457;-48
2023/03/20 07:22:15;;;;;;;33.67;30.90;;;;;;;-141.22;100.00;65034.22;4935071;29;20445;-54
2023/03/20 07:24:42;;;;;;;33.80;30.80;;;;;;;-141.22;100.00;65034.22;4935094;29;20437;-51
2023/03/20 07:27:13;;;;;;;32.37;29.63;;;;;;;-141.22;100.00;65034.22;4934566;28;20543;-51
2023/03/20 07:29:41;;;;;;;32.30;29.70;;;;;;;-141.22;100.00;65034.22;4935157;29;20807;-51
2023/03/20 07:32:10;;;;;;;32.63;29.83;;;;;;;-141.22;100.00;65034.22;4934883;29;20441;-51
2023/03/20 07:34:38;;;;;;;32.57;29.70;;;;;;;-141.22;100.00;65034.22;4934875;29;20436;-47
2023/03/20 07:37:07;;;;;;;35.03;31.70;;;;;;;-141.22;100.00;65034.22;4932635;28;20472;-45
2023/03/20 07:39:35;;;;;;;34.70;31.40;;;;;;;-141.22;100.00;65034.22;4934342;29;20463;-45
2023/03/20 07:42:02;;;;;;;32.80;30.63;;;;;;;-141.22;100.00;65034.22;4934979;29;20540;-53
2023/03/20 07:44:30;;;;;;;35.73;32.30;;;;;;;-141.22;100.00;65034.22;4935128;29;20440;-50
2023/03/20 07:46:58;;;;;;;34.47;31.17;;;;;;;-141.22;100.00;65034.22;4934126;28;20576;-50
2023/03/20 07:49:26;;;;;;;35.43;32.40;;;;;;;-141.22;100.00;65034.22;4934642;29;20464;-47
2023/03/20 07:51:55;;;;;;;34.37;31.57;;;;;;;-141.22;100.00;65034.22;4934660;29;20448;-50
2023/03/20 07:54:25;;;;;;;34.73;32.03;;;;;;;-141.22;100.00;65034.22;4934964;29;20433;-46
2023/03/20 07:56:52;;;;;;;34.83;32.33;;;;;;;-141.22;100.00;65034.22;4934054;28;20465;-46
2023/03/20 07:59:20;;;;;;;37.10;34.37;;;;;;;-141.22;100.00;65034.22;4934448;29;20476;-48
2023/03/20 08:01:47;;;;;;;37.97;34.17;;;;;;;-141.22;100.00;65034.22;4934246;29;20444;-54
2023/03/20 08:04:18;;;;;;;36.60;33.43;;;;;;;-141.22;100.00;65034.22;4934581;29;20437;-53
2023/03/20 08:06:46;;;;;;;37.20;34.30;;;;;;;-141.22;100.00;65034.22;4934160;28;20476;-47
2023/03/20 08:09:14;;;;;;;33.07;30.97;;;;;;;-141.22;100.00;65034.22;4934783;29;20460;-52
2023/03/20 08:11:43;;;;;;;37.37;34.27;;;;;;;-141.22;100.00;65034.22;4934373;29;20437;-48
2023/03/20 08:14:10;;;;;;;35.17;32.23;;;;;;;-141.22;100.00;65034.22;4934519;29;20531;-48
2023/03/20 08:16:38;;;;;;;36.07;33.27;;;;;;;-141.22;100.00;65034.22;4933952;28;20464;-51
2023/03/20 08:19:06;;;;;;;36.70;33.43;;;;;;;-141.22;100.00;65034.22;4934170;29;20524;-49
2023/03/20 08:21:34;;;;;;;36.40;32.60;;;;;;;-141.22;100.00;65034.22;4933851;29;20438;-48
2023/03/20 08:24:01;;;;;;;36.60;33.80;;;;;;;-141.22;100.00;65034.22;4934387;29;20444;-48
2023/03/20 08:26:29;;;;;;;35.43;32.07;;;;;;;-141.22;100.00;65034.22;4933952;28;20484;-53
2023/03/20 08:28:59;;;;;;;35.67;33.20;;;;;;;-141.22;100.00;65034.22;4934067;29;20463;-47
2023/03/20 08:31:26;;;;;;;36.57;33.17;;;;;;;-141.22;100.00;65034.22;4933916;29;20811;-52
2023/03/20 08:33:56;;;;;;;33.87;31.87;;;;;;;-141.22;100.00;65034.22;4934203;29;20436;-46
2023/03/20 08:36:24;;;;;;;35.93;33.30;;;;;;;-141.22;100.00;65034.22;4931970;28;20478;-48
2023/03/20 08:38:51;;;;;;;35.07;32.40;;;;;;;-141.22;100.00;65034.22;4934161;29;20555;-48
2023/03/20 08:41:19;;;;;;;34.23;31.87;;;;;;;-141.22;100.00;65034.22;4933945;29;20458;-49
2023/03/20 08:43:47;;;;;;;36.03;32.93;;;;;;;-141.22;100.00;65034.22;4933849;29;20492;-51
2023/03/20 08:46:17;;;;;;;35.67;32.77;;;;;;;-141.22;100.00;65034.22;4933862;28;20464;-47
2023/03/20 08:48:45;;;;;;;35.80;32.70;;;;;;;-141.22;100.00;65034.22;4934030;29;20459;-54
2023/03/20 08:51:12;;;;;;;37.07;34.10;;;;;;;-141.22;100.00;65034.22;4934156;29;20451;-46
2023/03/20 08:53:40;;;;;;;35.83;33.30;;;;;;;-141.22;100.00;65034.22;4937912;29;20823;-51
2023/03/20 08:56:09;;;;;;;37.67;33.97;;;;;;;-141.22;100.00;65034.22;4937327;28;20468;-54
2023/03/20 08:58:37;;;;;;;35.43;32.63;;;;;;;-141.22;100.00;65034.22;4938034;29;20447;-51
2023/03/20 09:01:06;;;;;;;37.40;33.97;;;;;;;-141.22;100.00;65034.22;4937652;29;20443;-49
2023/03/20 09:03:36;;;;;;;34.87;32.43;;;;;;;-141.22;100.00;65034.22;4938564;29;20443;-47
2023/03/20 09:06:06;;;;;;;36.00;33.43;;;;;;;-141.22;100.00;65034.22;4937959;28;20758;-48
2023/03/20 09:08:34;;;;;;;34.60;32.40;;;;;;;-141.22;100.00;65034.22;4938197;29;20566;-49
2023/03/20 09:11:02;;;;;;;36.37;33.87;;;;;;;-141.22;100.00;65034.22;4938258;29;20443;-46
2023/03/20 09:13:29;;;;;;;37.00;34.03;;;;;;;-141.22;100.00;65034.22;4941610;29;20432;-46
2023/03/20 09:15:57;;;;;;;33.80;31.30;;;;;;;-141.22;100.00;65034.22;4940407;28;20471;-44
2023/03/20 09:18:25;;;;;;;37.10;33.73;;;;;;;-141.22;100.00;65034.22;4940993;29;20433;-47
2023/03/20 09:20:55;;;;;;;35.70;33.23;;;;;;;-141.22;100.00;65034.22;4941092;29;20433;-46
2023/03/20 09:23:23;;;;;;;36.27;33.40;;;;;;;-141.22;100.00;65034.22;4941301;29;20495;-50
2023/03/20 09:25:50;;;;;;;37.17;34.20;;;;;;;-141.22;100.00;65034.22;4941609;28;20467;-46
2023/03/20 09:28:18;;;;;;;34.67;32.27;;;;;;;-141.22;100.00;65034.22;4941154;29;20480;-50
2023/03/20 09:30:46;;;;;;;34.37;32.07;;;;;;;-141.22;100.00;65034.22;4940997;29;20463;-45
2023/03/20 09:33:14;;;;;;;35.50;32.80;;;;;;;-141.22;100.00;65034.22;4940775;29;20437;-45
2023/03/20 09:35:42;;;;;;;34.60;32.10;;;;;;;-141.22;100.00;65034.22;4940419;28;20476;-46
2023/03/20 09:38:12;;;;;;;34.57;31.97;;;;;;;-141.22;100.00;65034.22;4941007;29;20464;-47
2023/03/20 09:40:51;;;;;;;34.83;32.10;;;;;;;-141.22;100.00;65034.22;4941391;29;20453;-44
2023/03/20 09:43:28;;;;;;;32.60;30.10;;;;;;;-141.22;100.00;65034.22;4940804;29;20424;-49
2023/03/20 09:46:07;;;;;;;34.73;32.37;;;;;;;-141.22;100.00;65034.22;4940688;28;21057;-46
2023/03/20 09:48:41;;;;;;;32.50;30.50;;;;;;;-141.22;100.00;65034.22;4940814;29;20547;-45
2023/03/20 09:51:21;;;;;;;32.70;30.50;;;;;;;-141.22;100.00;65034.22;4940938;29;20443;-47
2023/03/20 09:53:55;;;;;;;32.97;30.57;;;;;;;-141.22;100.00;65034.22;4940984;29;20530;-47
2023/03/20 09:56:29;;;;;;;34.13;32.03;;;;;;;-141.22;100.00;65034.22;4940262;28;20478;-44
2023/03/20 09:58:59;;;;;;;33.43;31.23;;;;;;;-141.22;100.00;65034.22;4940327;29;20519;-46
2023/03/20 10:01:32;;;;;;;34.13;31.53;;;;;;;-141.22;100.00;65034.22;4940633;29;20439;-47
2023/03/20 10:04:04;;;;;;;33.63;31.33;;;;;;;-141.22;100.00;65034.22;4940329;29;20487;-46
2023/03/20 10:06:33;;;;;;;35.23;32.73;;;;;;;-141.22;100.00;65034.22;4940000;28;20460;-48
2023/03/20 10:09:06;;;;;;;34.70;31.90;;;;;;;-141.22;100.00;65034.22;4939781;29;20476;-46
2023/03/20 10:11:54;;;;;;;33.60;31.40;;;;;;;-141.22;100.00;65034.22;4939880;29;20444;-48
2023/03/20 10:14:26;;;;;;;34.77;32.30;;;;;;;-141.22;100.00;65034.22;4940106;29;20455;-47
2023/03/20 10:17:08;;;;;;;34.43;32.03;;;;;;;-141.22;100.00;65034.22;4940162;28;20456;-48
2023/03/20 10:19:43;;;;;;;35.13;32.90;;;;;;;-141.22;100.00;65034.22;4940039;29;21037;-46
2023/03/20 10:22:21;;;;;;;35.07;32.60;;;;;;;-141.22;100.00;65034.22;4939725;29;20500;-49
2023/03/20 10:24:57;;;;;;;35.30;32.73;;;;;;;-141.22;100.00;65034.22;4940014;29;20432;-46
2023/03/20 10:27:29;;;;;;;34.17;31.47;;;;;;;-141.22;100.00;65034.22;4939044;29;20444;-47
2023/03/20 10:30:13;;;;;;;35.43;32.47;;;;;;;-141.22;100.00;65034.22;4939452;29;20468;-49
2023/03/20 10:32:48;;;;;;;37.83;35.10;;;;;;;-141.22;100.00;65034.22;4939160;29;20521;-45
2023/03/20 10:35:23;;;;;;;36.80;34.03;;;;;;;-141.22;100.00;65034.22;4939311;28;20523;-47
2023/03/20 10:38:12;;;;;;;35.90;33.17;;;;;;;-141.22;100.00;65034.22;4939521;29;20438;-47
2023/03/20 10:40:43;;;;;;;36.07;33.40;;;;;;;-141.22;100.00;65034.22;4939399;29;20998;-52
2023/03/20 10:43:17;;;;;;;35.37;32.83;;;;;;;-141.22;100.00;65034.22;4938884;29;20485;-47
2023/03/20 10:45:48;;;;;;;35.87;33.40;;;;;;;-141.22;100.00;65034.22;4938647;28;20460;-49
2023/03/20 10:48:25;;;;;;;37.40;34.17;;;;;;;-141.22;100.00;65034.22;4939109;29;20480;-45
2023/03/20 10:50:55;;;;;;;36.13;33.00;;;;;;;-141.22;100.00;65034.22;4938823;29;20439;-45
2023/03/20 10:53:29;;;;;;;37.77;34.97;;;;;;;-141.22;100.00;65034.22;4938951;29;20433;-46
2023/03/20 10:56:02;;;;;;;36.87;33.67;;;;;;;-141.22;100.00;65034.22;4938702;28;20527;-44
2023/03/20 10:58:33;;;;;;;38.40;35.23;;;;;;;-141.22;100.00;65034.22;4939525;29;20812;-47
2023/03/20 11:01:02;;;;;;;38.03;34.83;;;;;;;-141.22;100.00;65034.22;4939332;29;20441;-44
2023/03/20 11:03:35;;;;;;;38.03;35.03;;;;;;;-141.22;100.00;65034.22;4938783;29;20471;-50
2023/03/20 11:06:07;;;;;;;38.20;34.53;;;;;;;-141.22;100.00;65034.22;4938794;28;20468;-47
2023/03/20 11:08:40;;;;;;;36.77;33.87;;;;;;;-141.22;100.00;65034.22;4939249;29;21056;-44
2023/03/20 11:11:10;;;;;;;39.23;35.70;;;;;;;-141.22;100.00;65034.22;4939504;29;20441;-50
2023/03/20 11:13:41;;;;;;;37.70;34.50;;;;;;;-141.22;100.00;65034.22;4939571;29;20433;-47